sensor_id;sensor_type;location;lat;lon;timestamp;pressure;altitude;pressure_sealevel;temperature;humidity
37304;BME280;23188;51.188;16.374;2023-07-28T00:02:24;99221.42;;;18.54;100.00
37304;BME280;23188;51.188;16.374;2023-07-28T00:06:27;99216.50;;;18.54;100.00
37304;BME280;23188;51.188;16.374;2023-07-28T00:10:30;99210.30;;;18.57;100.00
37304;BME280;23188;51.188;16.374;2023-07-28T00:14:33;99211.40;;;18.60;100.00
37304;BME280;23188;51.188;16.374;2023-07-28T00:18:36;99206.31;;;18.64;100.00
37304;BME280;23188;51.188;16.374;2023-07-28T00:22:39;99198.60;;;18.62;100.00
37304;BME280;23188;51.188;16.374;2023-07-28T00:26:42;99187.27;;;18.59;100.00
37304;BME280;23188;51.188;16.374;2023-07-28T00:30:49;99185.60;;;18.59;100.00
37304;BME280;23188;51.188;16.374;2023-07-28T00:34:52;99190.82;;;18.59;100.00
37304;BME280;23188;51.188;16.374;2023-07-28T00:38:56;99185.80;;;18.62;100.00
37304;BME280;23188;51.188;16.374;2023-07-28T00:42:59;99181.13;;;18.63;100.00
37304;BME280;23188;51.188;16.374;2023-07-28T00:47:02;99175.41;;;18.59;100.00
37304;BME280;23188;51.188;16.374;2023-07-28T00:51:06;99169.73;;;18.58;100.00
37304;BME280;23188;51.188;16.374;2023-07-28T00:55:10;99166.83;;;18.54;100.00
37304;BME280;23188;51.188;16.374;2023-07-28T00:59:13;99166.87;;;18.54;100.00
37304;BME280;23188;51.188;16.374;2023-07-28T01:03:18;99163.72;;;18.56;100.00
37304;BME280;23188;51.188;16.374;2023-07-28T01:07:37;99160.57;;;18.55;100.00
37304;BME280;23188;51.188;16.374;2023-07-28T01:11:56;99153.41;;;18.58;100.00
37304;BME280;23188;51.188;16.374;2023-07-28T01:15:59;99152.26;;;18.60;100.00
37304;BME280;23188;51.188;16.374;2023-07-28T01:20:04;99151.59;;;18.61;100.00
37304;BME280;23188;51.188;16.374;2023-07-28T01:24:17;99155.27;;;18.63;100.00
37304;BME280;23188;51.188;16.374;2023-07-28T01:28:23;99151.50;;;18.64;100.00
37304;BME280;23188;51.188;16.374;2023-07-28T01:32:26;99147.32;;;18.62;100.00
37304;BME280;23188;51.188;16.374;2023-07-28T01:36:29;99150.88;;;18.62;100.00
37304;BME280;23188;51.188;16.374;2023-07-28T01:40:32;99149.27;;;18.59;100.00
37304;BME280;23188;51.188;16.374;2023-07-28T01:44:35;99150.05;;;18.56;100.00
37304;BME280;23188;51.188;16.374;2023-07-28T01:48:38;99148.52;;;18.49;100.00
37304;BME280;23188;51.188;16.374;2023-07-28T01:52:41;99142.50;;;18.40;100.00
37304;BME280;23188;51.188;16.374;2023-07-28T01:56:44;99143.91;;;18.40;100.00
37304;BME280;23188;51.188;16.374;2023-07-28T02:00:47;99141.34;;;18.42;100.00
37304;BME280;23188;51.188;16.374;2023-07-28T02:04:50;99134.96;;;18.40;100.00
37304;BME280;23188;51.188;16.374;2023-07-28T02:08:54;99130.02;;;18.36;100.00
37304;BME280;23188;51.188;16.374;2023-07-28T02:12:57;99128.36;;;18.35;100.00
37304;BME280;23188;51.188;16.374;2023-07-28T02:17:00;99123.20;;;18.36;100.00
37304;BME280;23188;51.188;16.374;2023-07-28T02:21:03;99126.21;;;18.42;100.00
37304;BME280;23188;51.188;16.374;2023-07-28T02:25:06;99125.02;;;18.46;100.00
37304;BME280;23188;51.188;16.374;2023-07-28T02:29:09;99122.79;;;18.45;100.00
37304;BME280;23188;51.188;16.374;2023-07-28T02:33:12;99122.83;;;18.46;100.00
37304;BME280;23188;51.188;16.374;2023-07-28T02:37:16;99124.98;;;18.47;100.00
37304;BME280;23188;51.188;16.374;2023-07-28T02:41:20;99121.83;;;18.46;100.00
37304;BME280;23188;51.188;16.374;2023-07-28T02:45:23;99117.85;;;18.46;100.00
37304;BME280;23188;51.188;16.374;2023-07-28T02:49:25;99113.39;;;18.48;100.00
37304;BME280;23188;51.188;16.374;2023-07-28T02:53:28;99110.29;;;18.50;100.00
37304;BME280;23188;51.188;16.374;2023-07-28T02:57:31;99107.55;;;18.56;100.00
37304;BME280;23188;51.188;16.374;2023-07-28T03:01:34;99113.89;;;18.59;100.00
37304;BME280;23188;51.188;16.374;2023-07-28T03:05:39;99115.29;;;18.60;100.00
37304;BME280;23188;51.188;16.374;2023-07-28T03:09:42;99115.34;;;18.59;100.00
37304;BME280;23188;51.188;16.374;2023-07-28T03:13:45;99115.02;;;18.61;100.00
37304;BME280;23188;51.188;16.374;2023-07-28T03:17:49;99116.58;;;18.63;100.00
37304;BME280;23188;51.188;16.374;2023-07-28T03:21:52;99116.08;;;18.64;100.00
37304;BME280;23188;51.188;16.374;2023-07-28T03:25:55;99115.66;;;18.66;100.00
37304;BME280;23188;51.188;16.374;2023-07-28T03:29:58;99116.02;;;18.67;100.00
37304;BME280;23188;51.188;16.374;2023-07-28T03:34:02;99114.23;;;18.69;100.00
37304;BME280;23188;51.188;16.374;2023-07-28T03:38:05;99105.84;;;18.71;100.00
37304;BME280;23188;51.188;16.374;2023-07-28T03:42:08;99107.86;;;18.71;100.00
37304;BME280;23188;51.188;16.374;2023-07-28T03:46:11;99110.29;;;18.67;100.00
37304;BME280;23188;51.188;16.374;2023-07-28T03:50:14;99111.61;;;18.74;100.00
37304;BME280;23188;51.188;16.374;2023-07-28T03:54:17;99111.72;;;18.80;100.00
37304;BME280;23188;51.188;16.374;2023-07-28T03:58:25;99113.30;;;18.80;100.00
37304;BME280;23188;51.188;16.374;2023-07-28T04:02:28;99107.16;;;18.83;100.00
37304;BME280;23188;51.188;16.374;2023-07-28T04:06:47;99103.30;;;18.85;100.00
37304;BME280;23188;51.188;16.374;2023-07-28T04:10:53;99104.13;;;18.92;100.00
37304;BME280;23188;51.188;16.374;2023-07-28T04:14:56;99100.73;;;19.00;100.00
37304;BME280;23188;51.188;16.374;2023-07-28T04:18:59;99101.18;;;19.06;100.00
37304;BME280;23188;51.188;16.374;2023-07-28T04:23:02;99097.63;;;19.08;100.00
37304;BME280;23188;51.188;16.374;2023-07-28T04:27:06;99100.90;;;19.06;100.00
37304;BME280;23188;51.188;16.374;2023-07-28T04:31:10;99100.40;;;19.07;100.00
37304;BME280;23188;51.188;16.374;2023-07-28T04:35:14;99105.83;;;19.09;100.00
37304;BME280;23188;51.188;16.374;2023-07-28T04:39:16;99101.96;;;19.12;100.00
37304;BME280;23188;51.188;16.374;2023-07-28T04:43:19;99099.17;;;19.16;100.00
37304;BME280;23188;51.188;16.374;2023-07-28T04:47:22;99100.66;;;19.18;100.00
37304;BME280;23188;51.188;16.374;2023-07-28T04:51:25;99095.80;;;19.23;100.00
37304;BME280;23188;51.188;16.374;2023-07-28T04:55:28;99094.95;;;19.28;100.00
37304;BME280;23188;51.188;16.374;2023-07-28T04:59:31;99091.73;;;19.36;100.00
37304;BME280;23188;51.188;16.374;2023-07-28T05:03:34;99090.41;;;19.47;100.00
37304;BME280;23188;51.188;16.374;2023-07-28T05:07:37;99086.17;;;19.58;100.00
37304;BME280;23188;51.188;16.374;2023-07-28T05:11:40;99082.89;;;19.69;100.00
37304;BME280;23188;51.188;16.374;2023-07-28T05:15:43;99081.06;;;19.75;100.00
37304;BME280;23188;51.188;16.374;2023-07-28T05:19:45;99079.65;;;19.80;100.00
37304;BME280;23188;51.188;16.374;2023-07-28T05:23:48;99087.10;;;19.86;100.00
37304;BME280;23188;51.188;16.374;2023-07-28T05:27:51;99090.42;;;19.91;100.00
37304;BME280;23188;51.188;16.374;2023-07-28T05:31:54;99100.95;;;19.96;100.00
37304;BME280;23188;51.188;16.374;2023-07-28T05:35:59;99104.58;;;19.93;100.00
37304;BME280;23188;51.188;16.374;2023-07-28T05:40:07;99097.52;;;19.92;100.00
37304;BME280;23188;51.188;16.374;2023-07-28T05:44:10;99097.51;;;19.93;100.00
37304;BME280;23188;51.188;16.374;2023-07-28T05:48:13;99093.00;;;19.98;100.00
37304;BME280;23188;51.188;16.374;2023-07-28T05:52:16;99094.61;;;20.09;100.00
37304;BME280;23188;51.188;16.374;2023-07-28T05:56:19;99094.18;;;20.22;100.00
37304;BME280;23188;51.188;16.374;2023-07-28T06:00:22;99093.70;;;20.32;100.00
37304;BME280;23188;51.188;16.374;2023-07-28T06:04:25;99091.48;;;20.40;100.00
37304;BME280;23188;51.188;16.374;2023-07-28T06:08:28;99095.91;;;20.47;100.00
37304;BME280;23188;51.188;16.374;2023-07-28T06:12:31;99098.48;;;20.58;100.00
37304;BME280;23188;51.188;16.374;2023-07-28T06:16:34;99106.85;;;20.66;100.00
37304;BME280;23188;51.188;16.374;2023-07-28T06:20:37;99107.00;;;20.72;100.00
37304;BME280;23188;51.188;16.374;2023-07-28T06:24:41;99116.66;;;20.81;100.00
37304;BME280;23188;51.188;16.374;2023-07-28T06:28:44;99117.27;;;20.93;100.00
37304;BME280;23188;51.188;16.374;2023-07-28T06:32:47;99116.86;;;21.11;100.00
37304;BME280;23188;51.188;16.374;2023-07-28T06:36:50;99110.88;;;21.32;100.00
37304;BME280;23188;51.188;16.374;2023-07-28T06:40:53;99103.14;;;21.57;100.00
37304;BME280;23188;51.188;16.374;2023-07-28T06:44:56;99111.14;;;21.79;100.00
37304;BME280;23188;51.188;16.374;2023-07-28T06:48:59;99116.75;;;21.99;100.00
37304;BME280;23188;51.188;16.374;2023-07-28T06:53:02;99115.16;;;22.04;100.00
37304;BME280;23188;51.188;16.374;2023-07-28T06:57:05;99118.17;;;22.09;100.00
37304;BME280;23188;51.188;16.374;2023-07-28T07:01:09;99126.86;;;22.06;100.00
37304;BME280;23188;51.188;16.374;2023-07-28T07:05:13;99126.52;;;21.94;100.00
37304;BME280;23188;51.188;16.374;2023-07-28T07:09:16;99132.59;;;21.86;100.00
37304;BME280;23188;51.188;16.374;2023-07-28T07:13:19;99135.31;;;21.81;100.00
37304;BME280;23188;51.188;16.374;2023-07-28T07:17:23;99145.38;;;21.78;100.00
37304;BME280;23188;51.188;16.374;2023-07-28T07:21:27;99147.31;;;21.80;100.00
37304;BME280;23188;51.188;16.374;2023-07-28T07:25:31;99155.48;;;21.79;100.00
37304;BME280;23188;51.188;16.374;2023-07-28T07:29:34;99154.61;;;21.86;100.00
37304;BME280;23188;51.188;16.374;2023-07-28T07:33:37;99152.57;;;21.82;100.00
37304;BME280;23188;51.188;16.374;2023-07-28T07:37:40;99154.79;;;21.80;100.00
37304;BME280;23188;51.188;16.374;2023-07-28T07:41:43;99160.02;;;21.79;100.00
37304;BME280;23188;51.188;16.374;2023-07-28T07:45:46;99166.30;;;21.87;100.00
37304;BME280;23188;51.188;16.374;2023-07-28T07:49:50;99171.05;;;21.73;100.00
37304;BME280;23188;51.188;16.374;2023-07-28T07:53:53;99182.25;;;21.47;100.00
37304;BME280;23188;51.188;16.374;2023-07-28T07:57:57;99182.33;;;21.06;100.00
37304;BME280;23188;51.188;16.374;2023-07-28T08:02:00;99182.86;;;20.81;100.00
37304;BME280;23188;51.188;16.374;2023-07-28T08:06:05;99180.42;;;20.69;100.00
37304;BME280;23188;51.188;16.374;2023-07-28T08:10:08;99183.53;;;20.78;100.00
37304;BME280;23188;51.188;16.374;2023-07-28T08:14:11;99190.74;;;21.00;100.00
37304;BME280;23188;51.188;16.374;2023-07-28T08:18:14;99189.13;;;21.21;100.00
37304;BME280;23188;51.188;16.374;2023-07-28T08:22:18;99185.44;;;21.41;100.00
37304;BME280;23188;51.188;16.374;2023-07-28T08:26:21;99182.93;;;21.62;100.00
37304;BME280;23188;51.188;16.374;2023-07-28T08:30:24;99192.69;;;21.77;100.00
37304;BME280;23188;51.188;16.374;2023-07-28T08:34:27;99195.95;;;21.89;100.00
37304;BME280;23188;51.188;16.374;2023-07-28T08:38:30;99189.98;;;22.07;100.00
37304;BME280;23188;51.188;16.374;2023-07-28T08:42:38;99188.56;;;22.24;100.00
37304;BME280;23188;51.188;16.374;2023-07-28T08:46:41;99186.94;;;22.50;100.00
37304;BME280;23188;51.188;16.374;2023-07-28T08:50:45;99182.04;;;22.95;100.00
37304;BME280;23188;51.188;16.374;2023-07-28T08:54:48;99182.13;;;23.34;100.00
37304;BME280;23188;51.188;16.374;2023-07-28T08:58:57;99175.21;;;23.36;100.00
37304;BME280;23188;51.188;16.374;2023-07-28T09:03:00;99175.46;;;23.41;99.80
37304;BME280;23188;51.188;16.374;2023-07-28T09:07:04;99173.76;;;23.33;100.00
37304;BME280;23188;51.188;16.374;2023-07-28T09:11:09;99176.39;;;23.11;99.76
37304;BME280;23188;51.188;16.374;2023-07-28T09:15:12;99177.02;;;23.20;97.68
37304;BME280;23188;51.188;16.374;2023-07-28T09:19:15;99183.48;;;23.24;96.78
37304;BME280;23188;51.188;16.374;2023-07-28T09:23:27;99187.54;;;23.35;96.39
37304;BME280;23188;51.188;16.374;2023-07-28T09:27:31;99184.27;;;23.36;95.64
37304;BME280;23188;51.188;16.374;2023-07-28T09:31:34;99180.91;;;23.33;95.16
37304;BME280;23188;51.188;16.374;2023-07-28T09:35:49;99186.08;;;23.31;94.32
37304;BME280;23188;51.188;16.374;2023-07-28T09:39:52;99178.07;;;23.42;94.78
37304;BME280;23188;51.188;16.374;2023-07-28T09:43:56;99186.95;;;23.69;93.75
37304;BME280;23188;51.188;16.374;2023-07-28T09:48:02;99178.81;;;23.95;92.38
37304;BME280;23188;51.188;16.374;2023-07-28T09:52:09;99172.89;;;24.06;91.51
37304;BME280;23188;51.188;16.374;2023-07-28T09:56:14;99174.05;;;23.95;89.41
37304;BME280;23188;51.188;16.374;2023-07-28T10:00:23;99178.48;;;23.98;90.10
37304;BME280;23188;51.188;16.374;2023-07-28T10:04:29;99169.54;;;24.37;88.39
37304;BME280;23188;51.188;16.374;2023-07-28T10:08:33;99164.56;;;24.69;85.18
37304;BME280;23188;51.188;16.374;2023-07-28T10:12:52;99161.20;;;24.74;83.80
37304;BME280;23188;51.188;16.374;2023-07-28T10:17:00;99157.45;;;24.97;84.45
37304;BME280;23188;51.188;16.374;2023-07-28T10:21:15;99155.55;;;25.25;83.88
37304;BME280;23188;51.188;16.374;2023-07-28T10:25:25;99162.77;;;25.62;81.20
37304;BME280;23188;51.188;16.374;2023-07-28T10:29:36;99166.86;;;25.76;78.96
37304;BME280;23188;51.188;16.374;2023-07-28T10:33:43;99165.33;;;26.00;77.00
37304;BME280;23188;51.188;16.374;2023-07-28T10:37:48;99167.08;;;26.13;76.01
37304;BME280;23188;51.188;16.374;2023-07-28T10:42:07;99158.76;;;26.24;74.65
37304;BME280;23188;51.188;16.374;2023-07-28T10:46:20;99161.89;;;26.45;74.30
37304;BME280;23188;51.188;16.374;2023-07-28T10:50:27;99163.49;;;26.41;73.69
37304;BME280;23188;51.188;16.374;2023-07-28T10:54:31;99162.18;;;26.35;75.33
37304;BME280;23188;51.188;16.374;2023-07-28T10:58:35;99162.59;;;26.50;73.00
37304;BME280;23188;51.188;16.374;2023-07-28T11:02:47;99156.91;;;26.35;73.14
37304;BME280;23188;51.188;16.374;2023-07-28T11:06:51;99154.30;;;26.31;73.16
37304;BME280;23188;51.188;16.374;2023-07-28T11:10:55;99156.97;;;26.26;73.09
37304;BME280;23188;51.188;16.374;2023-07-28T11:14:58;99162.30;;;26.37;73.84
37304;BME280;23188;51.188;16.374;2023-07-28T11:19:03;99154.13;;;26.56;72.19
37304;BME280;23188;51.188;16.374;2023-07-28T11:23:09;99155.91;;;26.59;71.29
37304;BME280;23188;51.188;16.374;2023-07-28T11:27:16;99144.33;;;26.63;70.81
37304;BME280;23188;51.188;16.374;2023-07-28T11:31:23;99144.11;;;26.59;70.83
37304;BME280;23188;51.188;16.374;2023-07-28T11:35:29;99141.29;;;26.40;70.72
37304;BME280;23188;51.188;16.374;2023-07-28T11:39:32;99144.95;;;26.23;70.27
37304;BME280;23188;51.188;16.374;2023-07-28T11:43:35;99154.06;;;26.19;71.12
37304;BME280;23188;51.188;16.374;2023-07-28T11:47:39;99156.38;;;26.25;72.48
37304;BME280;23188;51.188;16.374;2023-07-28T11:51:48;99163.21;;;26.47;74.21
37304;BME280;23188;51.188;16.374;2023-07-28T11:55:52;99159.71;;;26.77;72.28
37304;BME280;23188;51.188;16.374;2023-07-28T11:59:56;99159.67;;;26.91;67.66
37304;BME280;23188;51.188;16.374;2023-07-28T12:04:19;99159.29;;;27.07;68.04
37304;BME280;23188;51.188;16.374;2023-07-28T12:08:36;99163.98;;;27.15;66.64
37304;BME280;23188;51.188;16.374;2023-07-28T12:12:42;99167.58;;;27.07;68.69
37304;BME280;23188;51.188;16.374;2023-07-28T12:16:49;99171.91;;;26.82;67.49
37304;BME280;23188;51.188;16.374;2023-07-28T12:20:56;99172.17;;;26.80;69.46
37304;BME280;23188;51.188;16.374;2023-07-28T12:25:01;99178.66;;;27.06;69.77
37304;BME280;23188;51.188;16.374;2023-07-28T12:29:04;99178.73;;;27.35;70.36
37304;BME280;23188;51.188;16.374;2023-07-28T12:33:10;99180.15;;;27.50;68.26
37304;BME280;23188;51.188;16.374;2023-07-28T12:37:18;99176.81;;;27.52;67.65
37304;BME280;23188;51.188;16.374;2023-07-28T12:41:43;99168.88;;;27.58;65.03
37304;BME280;23188;51.188;16.374;2023-07-28T12:46:07;99167.76;;;27.35;65.34
37304;BME280;23188;51.188;16.374;2023-07-28T12:50:14;99166.74;;;27.22;66.88
37304;BME280;23188;51.188;16.374;2023-07-28T12:54:21;99172.08;;;27.47;64.49
37304;BME280;23188;51.188;16.374;2023-07-28T12:58:25;99174.91;;;27.63;63.43
37304;BME280;23188;51.188;16.374;2023-07-28T13:02:32;99168.08;;;27.89;62.57
37304;BME280;23188;51.188;16.374;2023-07-28T13:06:37;99169.21;;;27.74;62.32
37304;BME280;23188;51.188;16.374;2023-07-28T13:10:40;99179.05;;;27.78;62.11
37304;BME280;23188;51.188;16.374;2023-07-28T13:14:47;99171.13;;;28.06;61.71
37304;BME280;23188;51.188;16.374;2023-07-28T13:18:50;99170.20;;;28.07;60.89
37304;BME280;23188;51.188;16.374;2023-07-28T13:22:54;99181.29;;;28.17;60.59
37304;BME280;23188;51.188;16.374;2023-07-28T13:26:57;99178.32;;;28.01;60.07
37304;BME280;23188;51.188;16.374;2023-07-28T13:31:02;99175.90;;;27.91;59.52
37304;BME280;23188;51.188;16.374;2023-07-28T13:35:06;99187.93;;;27.68;59.45
37304;BME280;23188;51.188;16.374;2023-07-28T13:39:10;99194.16;;;27.68;60.11
37304;BME280;23188;51.188;16.374;2023-07-28T13:43:13;99190.13;;;27.83;60.05
37304;BME280;23188;51.188;16.374;2023-07-28T13:47:19;99195.98;;;28.15;59.56
37304;BME280;23188;51.188;16.374;2023-07-28T13:51:23;99202.89;;;27.94;58.72
37304;BME280;23188;51.188;16.374;2023-07-28T13:55:47;99206.46;;;27.60;59.86
37304;BME280;23188;51.188;16.374;2023-07-28T13:59:59;99204.02;;;27.71;59.29
37304;BME280;23188;51.188;16.374;2023-07-28T14:04:04;99203.80;;;28.02;58.72
37304;BME280;23188;51.188;16.374;2023-07-28T14:08:08;99208.98;;;28.35;57.38
37304;BME280;23188;51.188;16.374;2023-07-28T14:12:14;99207.77;;;28.57;56.42
37304;BME280;23188;51.188;16.374;2023-07-28T14:16:20;99208.16;;;28.69;56.28
37304;BME280;23188;51.188;16.374;2023-07-28T14:20:39;99205.75;;;28.65;56.93
37304;BME280;23188;51.188;16.374;2023-07-28T14:24:43;99199.34;;;28.62;56.79
37304;BME280;23188;51.188;16.374;2023-07-28T14:28:47;99198.47;;;28.66;56.64
37304;BME280;23188;51.188;16.374;2023-07-28T14:32:51;99195.38;;;28.98;56.12
37304;BME280;23188;51.188;16.374;2023-07-28T14:37:03;99198.20;;;29.13;55.52
37304;BME280;23188;51.188;16.374;2023-07-28T14:41:12;99205.63;;;29.24;55.51
37304;BME280;23188;51.188;16.374;2023-07-28T14:45:16;99207.42;;;29.42;55.93
37304;BME280;23188;51.188;16.374;2023-07-28T14:49:21;99206.21;;;29.48;55.21
37304;BME280;23188;51.188;16.374;2023-07-28T14:53:35;99206.74;;;29.15;55.36
37304;BME280;23188;51.188;16.374;2023-07-28T14:57:40;99210.42;;;29.06;56.33
37304;BME280;23188;51.188;16.374;2023-07-28T15:01:43;99215.23;;;28.92;56.21
37304;BME280;23188;51.188;16.374;2023-07-28T15:05:47;99210.70;;;28.46;56.72
37304;BME280;23188;51.188;16.374;2023-07-28T15:09:51;99217.80;;;28.41;58.17
37304;BME280;23188;51.188;16.374;2023-07-28T15:13:54;99213.36;;;28.62;57.44
37304;BME280;23188;51.188;16.374;2023-07-28T15:17:58;99213.53;;;28.72;56.71
37304;BME280;23188;51.188;16.374;2023-07-28T15:22:02;99221.02;;;28.67;56.08
37304;BME280;23188;51.188;16.374;2023-07-28T15:26:06;99221.48;;;28.46;56.45
37304;BME280;23188;51.188;16.374;2023-07-28T15:30:11;99218.09;;;28.40;56.01
37304;BME280;23188;51.188;16.374;2023-07-28T15:34:16;99221.88;;;28.51;56.30
37304;BME280;23188;51.188;16.374;2023-07-28T15:38:21;99222.55;;;28.63;55.79
37304;BME280;23188;51.188;16.374;2023-07-28T15:42:25;99223.06;;;28.80;55.82
37304;BME280;23188;51.188;16.374;2023-07-28T15:46:29;99219.84;;;29.07;55.64
37304;BME280;23188;51.188;16.374;2023-07-28T15:50:32;99224.39;;;28.99;55.36
37304;BME280;23188;51.188;16.374;2023-07-28T15:54:36;99222.41;;;29.11;54.79
37304;BME280;23188;51.188;16.374;2023-07-28T15:58:40;99223.73;;;29.02;55.12
37304;BME280;23188;51.188;16.374;2023-07-28T16:02:44;99229.15;;;28.84;56.06
37304;BME280;23188;51.188;16.374;2023-07-28T16:06:51;99230.98;;;28.79;56.56
37304;BME280;23188;51.188;16.374;2023-07-28T16:10:56;99230.17;;;28.78;56.73
37304;BME280;23188;51.188;16.374;2023-07-28T16:14:59;99231.27;;;29.00;56.67
37304;BME280;23188;51.188;16.374;2023-07-28T16:19:03;99226.36;;;29.05;55.35
37304;BME280;23188;51.188;16.374;2023-07-28T16:23:09;99232.20;;;29.14;55.04
37304;BME280;23188;51.188;16.374;2023-07-28T16:27:12;99239.71;;;29.09;55.11
37304;BME280;23188;51.188;16.374;2023-07-28T16:31:16;99237.85;;;28.97;55.35
37304;BME280;23188;51.188;16.374;2023-07-28T16:35:20;99244.77;;;28.76;55.47
37304;BME280;23188;51.188;16.374;2023-07-28T16:39:24;99249.58;;;28.72;55.66
37304;BME280;23188;51.188;16.374;2023-07-28T16:43:28;99257.79;;;28.40;56.13
37304;BME280;23188;51.188;16.374;2023-07-28T16:47:32;99264.05;;;28.31;57.14
37304;BME280;23188;51.188;16.374;2023-07-28T16:51:40;99264.95;;;28.13;57.34
37304;BME280;23188;51.188;16.374;2023-07-28T16:55:44;99263.34;;;27.91;57.67
37304;BME280;23188;51.188;16.374;2023-07-28T16:59:48;99266.39;;;27.92;57.34
37304;BME280;23188;51.188;16.374;2023-07-28T17:03:51;99274.48;;;27.61;58.14
37304;BME280;23188;51.188;16.374;2023-07-28T17:07:55;99273.31;;;27.46;58.67
37304;BME280;23188;51.188;16.374;2023-07-28T17:11:59;99285.71;;;27.24;59.52
37304;BME280;23188;51.188;16.374;2023-07-28T17:16:02;99285.22;;;27.04;60.46
37304;BME280;23188;51.188;16.374;2023-07-28T17:20:06;99285.99;;;26.92;61.36
37304;BME280;23188;51.188;16.374;2023-07-28T17:24:09;99285.53;;;26.69;61.93
37304;BME280;23188;51.188;16.374;2023-07-28T17:28:13;99294.08;;;26.47;62.91
37304;BME280;23188;51.188;16.374;2023-07-28T17:32:16;99290.29;;;26.44;63.38
37304;BME280;23188;51.188;16.374;2023-07-28T17:36:20;99290.23;;;26.39;63.78
37304;BME280;23188;51.188;16.374;2023-07-28T17:40:24;99291.48;;;26.38;64.07
37304;BME280;23188;51.188;16.374;2023-07-28T17:44:27;99298.27;;;26.36;64.47
37304;BME280;23188;51.188;16.374;2023-07-28T17:48:31;99304.06;;;26.33;64.95
37304;BME280;23188;51.188;16.374;2023-07-28T17:52:35;99315.41;;;26.29;67.94
37304;BME280;23188;51.188;16.374;2023-07-28T17:56:39;99324.52;;;26.22;70.97
37304;BME280;23188;51.188;16.374;2023-07-28T18:00:43;99320.05;;;25.98;72.99
37304;BME280;23188;51.188;16.374;2023-07-28T18:04:46;99329.61;;;25.76;74.63
37304;BME280;23188;51.188;16.374;2023-07-28T18:08:49;99330.44;;;25.59;75.75
37304;BME280;23188;51.188;16.374;2023-07-28T18:12:53;99343.06;;;25.42;76.66
37304;BME280;23188;51.188;16.374;2023-07-28T18:16:56;99348.63;;;25.27;77.21
37304;BME280;23188;51.188;16.374;2023-07-28T18:21:00;99365.25;;;25.03;79.17
37304;BME280;23188;51.188;16.374;2023-07-28T18:25:04;99367.68;;;24.81;80.96
37304;BME280;23188;51.188;16.374;2023-07-28T18:29:08;99371.75;;;24.60;82.41
37304;BME280;23188;51.188;16.374;2023-07-28T18:33:12;99373.29;;;24.39;83.57
37304;BME280;23188;51.188;16.374;2023-07-28T18:37:16;99376.61;;;24.24;84.46
37304;BME280;23188;51.188;16.374;2023-07-28T18:41:19;99378.10;;;24.13;84.52
37304;BME280;23188;51.188;16.374;2023-07-28T18:45:23;99384.05;;;24.02;84.84
37304;BME280;23188;51.188;16.374;2023-07-28T18:49:26;99386.16;;;23.93;85.56
37304;BME280;23188;51.188;16.374;2023-07-28T18:53:29;99392.89;;;23.81;86.08
37304;BME280;23188;51.188;16.374;2023-07-28T18:57:32;99395.56;;;23.68;86.70
37304;BME280;23188;51.188;16.374;2023-07-28T19:01:36;99400.80;;;23.57;87.08
37304;BME280;23188;51.188;16.374;2023-07-28T19:05:40;99405.33;;;23.49;87.10
37304;BME280;23188;51.188;16.374;2023-07-28T19:09:43;99410.80;;;23.42;87.60
37304;BME280;23188;51.188;16.374;2023-07-28T19:13:46;99410.48;;;23.35;87.61
37304;BME280;23188;51.188;16.374;2023-07-28T19:17:51;99413.78;;;23.22;88.92
37304;BME280;23188;51.188;16.374;2023-07-28T19:21:55;99413.23;;;23.07;89.61
37304;BME280;23188;51.188;16.374;2023-07-28T19:25:59;99405.53;;;23.00;90.79
37304;BME280;23188;51.188;16.374;2023-07-28T19:30:03;99418.45;;;22.90;92.09
37304;BME280;23188;51.188;16.374;2023-07-28T19:34:07;99429.37;;;22.75;92.35
37304;BME280;23188;51.188;16.374;2023-07-28T19:38:10;99432.64;;;22.63;93.28
37304;BME280;23188;51.188;16.374;2023-07-28T19:42:13;99437.96;;;22.38;96.42
37304;BME280;23188;51.188;16.374;2023-07-28T19:46:17;99439.39;;;22.16;96.18
37304;BME280;23188;51.188;16.374;2023-07-28T19:50:24;99441.70;;;22.11;96.14
37304;BME280;23188;51.188;16.374;2023-07-28T19:54:47;99448.17;;;22.07;96.14
37304;BME280;23188;51.188;16.374;2023-07-28T19:58:50;99455.56;;;22.01;96.19
37304;BME280;23188;51.188;16.374;2023-07-28T20:02:54;99468.52;;;21.96;96.12
37304;BME280;23188;51.188;16.374;2023-07-28T20:06:57;99474.55;;;21.88;96.65
37304;BME280;23188;51.188;16.374;2023-07-28T20:11:00;99480.59;;;21.82;96.64
37304;BME280;23188;51.188;16.374;2023-07-28T20:15:04;99487.58;;;21.75;96.54
37304;BME280;23188;51.188;16.374;2023-07-28T20:19:07;99484.82;;;21.64;97.27
37304;BME280;23188;51.188;16.374;2023-07-28T20:23:10;99486.85;;;21.56;97.92
37304;BME280;23188;51.188;16.374;2023-07-28T20:27:14;99491.67;;;21.49;97.97
37304;BME280;23188;51.188;16.374;2023-07-28T20:31:17;99496.96;;;21.43;98.24
37304;BME280;23188;51.188;16.374;2023-07-28T20:35:22;99502.39;;;21.31;98.06
37304;BME280;23188;51.188;16.374;2023-07-28T20:39:25;99509.71;;;21.22;99.00
37304;BME280;23188;51.188;16.374;2023-07-28T20:43:28;99515.95;;;21.12;99.79
37304;BME280;23188;51.188;16.374;2023-07-28T20:47:31;99519.85;;;21.06;99.86
37304;BME280;23188;51.188;16.374;2023-07-28T20:51:35;99513.16;;;21.03;99.97
37304;BME280;23188;51.188;16.374;2023-07-28T20:55:38;99512.67;;;20.97;99.83
37304;BME280;23188;51.188;16.374;2023-07-28T20:59:41;99512.33;;;20.90;100.00
37304;BME280;23188;51.188;16.374;2023-07-28T21:03:44;99506.77;;;20.82;99.96
37304;BME280;23188;51.188;16.374;2023-07-28T21:07:49;99508.09;;;20.61;100.00
37304;BME280;23188;51.188;16.374;2023-07-28T21:11:54;99512.23;;;20.41;100.00